sensor_id;sensor_type;location;lat;lon;timestamp;temperature;humidity
4399;DHT22;2213;49.720;7.296;2023-11-18T00:00:33;6.10;99.90
4399;DHT22;2213;49.720;7.296;2023-11-18T00:03:01;6.20;99.90
4399;DHT22;2213;49.720;7.296;2023-11-18T00:05:30;6.20;99.90
4399;DHT22;2213;49.720;7.296;2023-11-18T00:08:01;6.20;99.90
4399;DHT22;2213;49.720;7.296;2023-11-18T00:10:29;6.10;99.90
4399;DHT22;2213;49.720;7.296;2023-11-18T00:12:58;6.10;99.90
4399;DHT22;2213;49.720;7.296;2023-11-18T00:15:28;6.10;99.90
4399;DHT22;2213;49.720;7.296;2023-11-18T00:17:57;6.10;99.90
4399;DHT22;2213;49.720;7.296;2023-11-18T00:20:26;6.10;99.90
4399;DHT22;2213;49.720;7.296;2023-11-18T00:22:54;6.10;99.90
4399;DHT22;2213;49.720;7.296;2023-11-18T00:25:24;6.10;99.90
4399;DHT22;2213;49.720;7.296;2023-11-18T00:27:53;6.20;99.90
4399;DHT22;2213;49.720;7.296;2023-11-18T00:30:21;6.10;99.90
4399;DHT22;2213;49.720;7.296;2023-11-18T00:32:50;6.20;99.90
4399;DHT22;2213;49.720;7.296;2023-11-18T00:35:19;6.20;99.90
4399;DHT22;2213;49.720;7.296;2023-11-18T00:37:48;6.20;99.90
4399;DHT22;2213;49.720;7.296;2023-11-18T00:40:16;6.20;99.90
4399;DHT22;2213;49.720;7.296;2023-11-18T00:42:47;6.20;99.90
4399;DHT22;2213;49.720;7.296;2023-11-18T00:45:15;6.20;99.90
4399;DHT22;2213;49.720;7.296;2023-11-18T00:47:45;6.20;99.90
4399;DHT22;2213;49.720;7.296;2023-11-18T00:50:13;6.20;99.90
4399;DHT22;2213;49.720;7.296;2023-11-18T00:52:42;6.30;99.90
4399;DHT22;2213;49.720;7.296;2023-11-18T00:55:11;6.20;99.90
4399;DHT22;2213;49.720;7.296;2023-11-18T00:57:39;6.20;99.90
4399;DHT22;2213;49.720;7.296;2023-11-18T01:00:12;6.20;99.90
4399;DHT22;2213;49.720;7.296;2023-11-18T01:02:43;6.20;99.90
4399;DHT22;2213;49.720;7.296;2023-11-18T01:05:14;6.20;99.90
4399;DHT22;2213;49.720;7.296;2023-11-18T01:07:42;6.20;99.90
4399;DHT22;2213;49.720;7.296;2023-11-18T01:10:12;6.20;99.90
4399;DHT22;2213;49.720;7.296;2023-11-18T01:12:41;6.20;99.90
4399;DHT22;2213;49.720;7.296;2023-11-18T01:15:12;6.20;99.90
4399;DHT22;2213;49.720;7.296;2023-11-18T01:17:41;6.20;99.90
4399;DHT22;2213;49.720;7.296;2023-11-18T01:20:11;6.20;99.90
4399;DHT22;2213;49.720;7.296;2023-11-18T01:22:41;6.20;99.90
4399;DHT22;2213;49.720;7.296;2023-11-18T01:25:12;6.20;99.90
4399;DHT22;2213;49.720;7.296;2023-11-18T01:27:42;6.20;99.90
4399;DHT22;2213;49.720;7.296;2023-11-18T01:30:15;6.20;99.90
4399;DHT22;2213;49.720;7.296;2023-11-18T01:32:43;6.20;99.90
4399;DHT22;2213;49.720;7.296;2023-11-18T01:35:13;6.30;99.90
4399;DHT22;2213;49.720;7.296;2023-11-18T01:37:42;6.20;99.90
4399;DHT22;2213;49.720;7.296;2023-11-18T01:40:11;6.20;99.90
4399;DHT22;2213;49.720;7.296;2023-11-18T01:42:42;6.20;99.90
4399;DHT22;2213;49.720;7.296;2023-11-18T01:45:15;6.20;99.90
4399;DHT22;2213;49.720;7.296;2023-11-18T01:47:44;6.30;99.90
4399;DHT22;2213;49.720;7.296;2023-11-18T01:50:16;6.20;99.90
4399;DHT22;2213;49.720;7.296;2023-11-18T01:52:46;6.20;99.90
4399;DHT22;2213;49.720;7.296;2023-11-18T01:55:16;6.10;99.90
4399;DHT22;2213;49.720;7.296;2023-11-18T01:57:45;6.10;99.90
4399;DHT22;2213;49.720;7.296;2023-11-18T02:00:15;6.20;99.90
4399;DHT22;2213;49.720;7.296;2023-11-18T02:02:45;6.10;99.90
4399;DHT22;2213;49.720;7.296;2023-11-18T02:05:14;6.10;99.90
4399;DHT22;2213;49.720;7.296;2023-11-18T02:07:44;6.10;99.90
4399;DHT22;2213;49.720;7.296;2023-11-18T02:10:14;6.00;99.90
4399;DHT22;2213;49.720;7.296;2023-11-18T02:12:50;6.00;99.90
4399;DHT22;2213;49.720;7.296;2023-11-18T02:15:28;6.10;99.90
4399;DHT22;2213;49.720;7.296;2023-11-18T02:18:02;6.10;99.90
4399;DHT22;2213;49.720;7.296;2023-11-18T02:20:37;6.10;99.90
4399;DHT22;2213;49.720;7.296;2023-11-18T02:23:07;6.10;99.90
4399;DHT22;2213;49.720;7.296;2023-11-18T02:25:43;6.00;99.90
4399;DHT22;2213;49.720;7.296;2023-11-18T02:28:13;6.00;99.90
4399;DHT22;2213;49.720;7.296;2023-11-18T02:30:42;6.00;99.90
4399;DHT22;2213;49.720;7.296;2023-11-18T02:33:17;6.10;99.90
4399;DHT22;2213;49.720;7.296;2023-11-18T02:35:53;6.00;99.90
4399;DHT22;2213;49.720;7.296;2023-11-18T02:38:29;6.00;99.90
4399;DHT22;2213;49.720;7.296;2023-11-18T02:41:09;5.90;99.90
4399;DHT22;2213;49.720;7.296;2023-11-18T02:43:40;6.00;99.90
4399;DHT22;2213;49.720;7.296;2023-11-18T02:46:12;5.90;99.90
4399;DHT22;2213;49.720;7.296;2023-11-18T02:48:41;5.90;99.90
4399;DHT22;2213;49.720;7.296;2023-11-18T02:51:10;5.90;99.90
4399;DHT22;2213;49.720;7.296;2023-11-18T02:53:39;5.90;99.90
4399;DHT22;2213;49.720;7.296;2023-11-18T02:56:13;6.00;99.90
4399;DHT22;2213;49.720;7.296;2023-11-18T02:58:42;6.00;99.90
4399;DHT22;2213;49.720;7.296;2023-11-18T03:01:10;6.00;99.90
4399;DHT22;2213;49.720;7.296;2023-11-18T03:03:40;6.00;99.90
4399;DHT22;2213;49.720;7.296;2023-11-18T03:06:09;6.00;99.90
4399;DHT22;2213;49.720;7.296;2023-11-18T03:08:38;6.00;99.90
4399;DHT22;2213;49.720;7.296;2023-11-18T03:11:08;6.10;99.90
4399;DHT22;2213;49.720;7.296;2023-11-18T03:13:39;6.10;99.90
4399;DHT22;2213;49.720;7.296;2023-11-18T03:16:08;6.10;99.90
4399;DHT22;2213;49.720;7.296;2023-11-18T03:18:38;6.10;99.90
4399;DHT22;2213;49.720;7.296;2023-11-18T03:21:11;6.20;99.90
4399;DHT22;2213;49.720;7.296;2023-11-18T03:23:40;6.20;99.90
4399;DHT22;2213;49.720;7.296;2023-11-18T03:26:09;6.20;99.90
4399;DHT22;2213;49.720;7.296;2023-11-18T03:28:40;6.30;99.90
4399;DHT22;2213;49.720;7.296;2023-11-18T03:31:08;6.10;99.90
4399;DHT22;2213;49.720;7.296;2023-11-18T03:33:39;6.20;99.90
4399;DHT22;2213;49.720;7.296;2023-11-18T03:36:08;6.20;99.90
4399;DHT22;2213;49.720;7.296;2023-11-18T03:38:39;6.10;99.90
4399;DHT22;2213;49.720;7.296;2023-11-18T03:41:08;6.10;99.90
4399;DHT22;2213;49.720;7.296;2023-11-18T03:43:38;6.30;99.90
4399;DHT22;2213;49.720;7.296;2023-11-18T03:46:07;6.30;99.90
4399;DHT22;2213;49.720;7.296;2023-11-18T03:48:37;6.30;99.90
4399;DHT22;2213;49.720;7.296;2023-11-18T03:51:06;6.40;99.90
4399;DHT22;2213;49.720;7.296;2023-11-18T03:53:34;6.40;99.90
4399;DHT22;2213;49.720;7.296;2023-11-18T03:56:04;6.30;99.90
4399;DHT22;2213;49.720;7.296;2023-11-18T03:58:33;6.30;99.90
4399;DHT22;2213;49.720;7.296;2023-11-18T04:01:03;6.30;99.90
4399;DHT22;2213;49.720;7.296;2023-11-18T04:03:33;6.20;99.90
4399;DHT22;2213;49.720;7.296;2023-11-18T04:06:02;6.30;99.90
4399;DHT22;2213;49.720;7.296;2023-11-18T04:08:31;6.30;99.90
4399;DHT22;2213;49.720;7.296;2023-11-18T04:11:01;6.30;99.90
4399;DHT22;2213;49.720;7.296;2023-11-18T04:13:31;6.30;99.90
4399;DHT22;2213;49.720;7.296;2023-11-18T04:15:59;6.40;99.90
4399;DHT22;2213;49.720;7.296;2023-11-18T04:18:29;6.30;99.90
4399;DHT22;2213;49.720;7.296;2023-11-18T04:20:57;6.30;99.90
4399;DHT22;2213;49.720;7.296;2023-11-18T04:23:26;6.30;99.90
4399;DHT22;2213;49.720;7.296;2023-11-18T04:25:54;6.20;99.90
4399;DHT22;2213;49.720;7.296;2023-11-18T04:28:23;6.10;99.90
4399;DHT22;2213;49.720;7.296;2023-11-18T04:30:53;6.30;99.90
4399;DHT22;2213;49.720;7.296;2023-11-18T04:33:22;6.30;99.90
4399;DHT22;2213;49.720;7.296;2023-11-18T04:35:53;6.20;99.90
4399;DHT22;2213;49.720;7.296;2023-11-18T04:38:24;6.20;99.90
4399;DHT22;2213;49.720;7.296;2023-11-18T04:40:54;6.20;99.90
4399;DHT22;2213;49.720;7.296;2023-11-18T04:43:22;6.30;99.90
4399;DHT22;2213;49.720;7.296;2023-11-18T04:46:06;6.20;99.90
4399;DHT22;2213;49.720;7.296;2023-11-18T04:48:34;6.20;99.90
4399;DHT22;2213;49.720;7.296;2023-11-18T04:51:09;6.20;99.90
4399;DHT22;2213;49.720;7.296;2023-11-18T04:53:38;6.20;99.90
4399;DHT22;2213;49.720;7.296;2023-11-18T04:56:07;6.10;99.90
4399;DHT22;2213;49.720;7.296;2023-11-18T04:58:38;6.20;99.90
4399;DHT22;2213;49.720;7.296;2023-11-18T05:01:07;6.30;99.90
4399;DHT22;2213;49.720;7.296;2023-11-18T05:03:36;6.20;99.90
4399;DHT22;2213;49.720;7.296;2023-11-18T05:06:05;6.20;99.90
4399;DHT22;2213;49.720;7.296;2023-11-18T05:08:36;6.20;99.90
4399;DHT22;2213;49.720;7.296;2023-11-18T05:11:05;6.20;99.90
4399;DHT22;2213;49.720;7.296;2023-11-18T05:13:34;6.30;99.90
4399;DHT22;2213;49.720;7.296;2023-11-18T05:16:04;6.30;99.90
4399;DHT22;2213;49.720;7.296;2023-11-18T05:18:33;6.30;99.90
4399;DHT22;2213;49.720;7.296;2023-11-18T05:21:04;6.30;99.90
4399;DHT22;2213;49.720;7.296;2023-11-18T05:23:35;6.20;99.90
4399;DHT22;2213;49.720;7.296;2023-11-18T05:26:04;6.30;99.90
4399;DHT22;2213;49.720;7.296;2023-11-18T05:28:34;6.20;99.90
4399;DHT22;2213;49.720;7.296;2023-11-18T05:31:03;6.20;99.90
4399;DHT22;2213;49.720;7.296;2023-11-18T05:33:33;6.30;99.90
4399;DHT22;2213;49.720;7.296;2023-11-18T05:36:03;6.20;99.90
4399;DHT22;2213;49.720;7.296;2023-11-18T05:38:33;6.20;99.90
4399;DHT22;2213;49.720;7.296;2023-11-18T05:41:04;6.30;99.90
4399;DHT22;2213;49.720;7.296;2023-11-18T05:43:43;6.40;99.90
4399;DHT22;2213;49.720;7.296;2023-11-18T05:46:18;6.30;99.90
4399;DHT22;2213;49.720;7.296;2023-11-18T05:48:50;6.30;99.90
4399;DHT22;2213;49.720;7.296;2023-11-18T05:51:20;6.20;99.90
4399;DHT22;2213;49.720;7.296;2023-11-18T05:53:50;6.20;99.90
4399;DHT22;2213;49.720;7.296;2023-11-18T05:56:21;6.20;99.90
4399;DHT22;2213;49.720;7.296;2023-11-18T05:58:51;6.20;99.90
4399;DHT22;2213;49.720;7.296;2023-11-18T06:01:21;6.10;99.90
4399;DHT22;2213;49.720;7.296;2023-11-18T06:03:51;6.10;99.90
4399;DHT22;2213;49.720;7.296;2023-11-18T06:06:20;6.20;99.90
4399;DHT22;2213;49.720;7.296;2023-11-18T06:08:51;6.10;99.90
4399;DHT22;2213;49.720;7.296;2023-11-18T06:11:22;6.20;99.90
4399;DHT22;2213;49.720;7.296;2023-11-18T06:13:52;6.20;99.90
4399;DHT22;2213;49.720;7.296;2023-11-18T06:16:22;6.20;99.90
4399;DHT22;2213;49.720;7.296;2023-11-18T06:18:53;6.30;99.90
4399;DHT22;2213;49.720;7.296;2023-11-18T06:21:24;6.20;99.90
4399;DHT22;2213;49.720;7.296;2023-11-18T06:23:57;6.20;99.90
4399;DHT22;2213;49.720;7.296;2023-11-18T06:26:28;6.20;99.90
4399;DHT22;2213;49.720;7.296;2023-11-18T06:28:57;6.20;99.90
4399;DHT22;2213;49.720;7.296;2023-11-18T06:31:26;6.20;99.90
4399;DHT22;2213;49.720;7.296;2023-11-18T06:33:56;6.20;99.90
4399;DHT22;2213;49.720;7.296;2023-11-18T06:36:25;6.20;99.90
4399;DHT22;2213;49.720;7.296;2023-11-18T06:38:56;6.20;99.90
4399;DHT22;2213;49.720;7.296;2023-11-18T06:41:27;6.20;99.90
4399;DHT22;2213;49.720;7.296;2023-11-18T06:44:01;6.30;99.90
4399;DHT22;2213;49.720;7.296;2023-11-18T06:46:36;6.30;99.90
4399;DHT22;2213;49.720;7.296;2023-11-18T06:49:08;6.30;99.90
4399;DHT22;2213;49.720;7.296;2023-11-18T06:51:42;6.30;99.90
4399;DHT22;2213;49.720;7.296;2023-11-18T06:54:11;6.40;99.90
4399;DHT22;2213;49.720;7.296;2023-11-18T06:56:42;6.40;99.90
4399;DHT22;2213;49.720;7.296;2023-11-18T06:59:12;6.50;99.90
4399;DHT22;2213;49.720;7.296;2023-11-18T07:01:43;6.50;99.90
4399;DHT22;2213;49.720;7.296;2023-11-18T07:04:12;6.40;99.90
4399;DHT22;2213;49.720;7.296;2023-11-18T07:06:42;6.50;99.90
4399;DHT22;2213;49.720;7.296;2023-11-18T07:09:12;6.60;99.90
4399;DHT22;2213;49.720;7.296;2023-11-18T07:11:47;6.50;99.90
4399;DHT22;2213;49.720;7.296;2023-11-18T07:14:18;6.50;99.90
4399;DHT22;2213;49.720;7.296;2023-11-18T07:16:47;6.50;99.90
4399;DHT22;2213;49.720;7.296;2023-11-18T07:19:16;6.50;99.90
4399;DHT22;2213;49.720;7.296;2023-11-18T07:21:49;6.50;99.90
4399;DHT22;2213;49.720;7.296;2023-11-18T07:24:18;6.60;99.90
4399;DHT22;2213;49.720;7.296;2023-11-18T07:26:50;6.60;99.90
4399;DHT22;2213;49.720;7.296;2023-11-18T07:29:19;6.50;99.90
4399;DHT22;2213;49.720;7.296;2023-11-18T07:31:48;6.50;99.90
4399;DHT22;2213;49.720;7.296;2023-11-18T07:34:16;6.50;99.90
4399;DHT22;2213;49.720;7.296;2023-11-18T07:36:45;6.50;99.90
4399;DHT22;2213;49.720;7.296;2023-11-18T07:39:14;6.50;99.90
4399;DHT22;2213;49.720;7.296;2023-11-18T07:41:52;6.50;99.90
4399;DHT22;2213;49.720;7.296;2023-11-18T07:44:21;6.50;99.90
4399;DHT22;2213;49.720;7.296;2023-11-18T07:46:50;6.50;99.90
4399;DHT22;2213;49.720;7.296;2023-11-18T07:49:19;6.60;99.90
4399;DHT22;2213;49.720;7.296;2023-11-18T07:51:53;6.60;99.90
4399;DHT22;2213;49.720;7.296;2023-11-18T07:54:21;6.50;99.90
4399;DHT22;2213;49.720;7.296;2023-11-18T07:56:52;6.60;99.90
4399;DHT22;2213;49.720;7.296;2023-11-18T07:59:21;6.60;99.90
4399;DHT22;2213;49.720;7.296;2023-11-18T08:01:51;6.50;99.90
4399;DHT22;2213;49.720;7.296;2023-11-18T08:04:20;6.50;99.90
4399;DHT22;2213;49.720;7.296;2023-11-18T08:06:49;6.60;99.90
4399;DHT22;2213;49.720;7.296;2023-11-18T08:09:18;6.70;99.90
4399;DHT22;2213;49.720;7.296;2023-11-18T08:11:51;6.60;99.90
4399;DHT22;2213;49.720;7.296;2023-11-18T08:14:22;6.60;99.90
4399;DHT22;2213;49.720;7.296;2023-11-18T08:16:51;6.60;99.90
4399;DHT22;2213;49.720;7.296;2023-11-18T08:19:20;6.60;99.90
4399;DHT22;2213;49.720;7.296;2023-11-18T08:21:50;6.50;99.90
4399;DHT22;2213;49.720;7.296;2023-11-18T08:24:26;6.40;99.90
4399;DHT22;2213;49.720;7.296;2023-11-18T08:26:57;6.40;99.90
4399;DHT22;2213;49.720;7.296;2023-11-18T08:29:26;6.40;99.90
4399;DHT22;2213;49.720;7.296;2023-11-18T08:31:58;6.40;99.90
4399;DHT22;2213;49.720;7.296;2023-11-18T08:34:27;6.40;99.90
4399;DHT22;2213;49.720;7.296;2023-11-18T08:36:56;6.40;99.90
4399;DHT22;2213;49.720;7.296;2023-11-18T08:39:25;6.50;99.90
4399;DHT22;2213;49.720;7.296;2023-11-18T08:41:57;6.50;99.90
4399;DHT22;2213;49.720;7.296;2023-11-18T08:44:26;6.50;99.90
4399;DHT22;2213;49.720;7.296;2023-11-18T08:46:55;6.50;99.90
4399;DHT22;2213;49.720;7.296;2023-11-18T08:49:24;6.60;99.90
4399;DHT22;2213;49.720;7.296;2023-11-18T08:51:56;6.60;99.90
4399;DHT22;2213;49.720;7.296;2023-11-18T08:54:25;6.70;99.90
4399;DHT22;2213;49.720;7.296;2023-11-18T08:57:05;6.80;99.90
4399;DHT22;2213;49.720;7.296;2023-11-18T08:59:50;6.70;99.90
4399;DHT22;2213;49.720;7.296;2023-11-18T09:02:19;6.70;99.90
4399;DHT22;2213;49.720;7.296;2023-11-18T09:04:50;6.70;99.90
4399;DHT22;2213;49.720;7.296;2023-11-18T09:07:20;6.70;99.90
4399;DHT22;2213;49.720;7.296;2023-11-18T09:09:49;6.70;99.90
4399;DHT22;2213;49.720;7.296;2023-11-18T09:12:21;6.80;99.90
4399;DHT22;2213;49.720;7.296;2023-11-18T09:14:51;6.80;99.90
4399;DHT22;2213;49.720;7.296;2023-11-18T09:17:21;6.80;99.90
4399;DHT22;2213;49.720;7.296;2023-11-18T09:19:50;6.80;99.90
4399;DHT22;2213;49.720;7.296;2023-11-18T09:22:19;6.90;99.90
4399;DHT22;2213;49.720;7.296;2023-11-18T09:24:50;6.90;99.90
4399;DHT22;2213;49.720;7.296;2023-11-18T09:27:18;6.90;99.90
4399;DHT22;2213;49.720;7.296;2023-11-18T09:29:48;6.90;99.90
4399;DHT22;2213;49.720;7.296;2023-11-18T09:32:17;7.00;99.90
4399;DHT22;2213;49.720;7.296;2023-11-18T09:34:46;7.00;99.90
4399;DHT22;2213;49.720;7.296;2023-11-18T09:37:15;7.00;99.90
4399;DHT22;2213;49.720;7.296;2023-11-18T09:39:45;7.00;99.90
4399;DHT22;2213;49.720;7.296;2023-11-18T09:42:19;7.00;99.90
4399;DHT22;2213;49.720;7.296;2023-11-18T09:44:52;7.10;99.90
4399;DHT22;2213;49.720;7.296;2023-11-18T09:47:23;7.10;99.90
4399;DHT22;2213;49.720;7.296;2023-11-18T09:49:56;7.10;99.90
4399;DHT22;2213;49.720;7.296;2023-11-18T09:52:31;7.10;99.90
4399;DHT22;2213;49.720;7.296;2023-11-18T09:55:05;7.20;99.90
4399;DHT22;2213;49.720;7.296;2023-11-18T09:57:45;7.10;99.90
4399;DHT22;2213;49.720;7.296;2023-11-18T10:00:26;7.10;99.90
4399;DHT22;2213;49.720;7.296;2023-11-18T10:03:00;7.20;99.90
4399;DHT22;2213;49.720;7.296;2023-11-18T10:05:29;7.30;99.90
4399;DHT22;2213;49.720;7.296;2023-11-18T10:07:58;7.30;99.90
4399;DHT22;2213;49.720;7.296;2023-11-18T10:10:28;7.20;99.90
4399;DHT22;2213;49.720;7.296;2023-11-18T10:13:04;7.30;99.90
4399;DHT22;2213;49.720;7.296;2023-11-18T10:15:47;7.30;99.90
4399;DHT22;2213;49.720;7.296;2023-11-18T10:18:19;7.20;99.90
4399;DHT22;2213;49.720;7.296;2023-11-18T10:20:51;7.30;99.90
4399;DHT22;2213;49.720;7.296;2023-11-18T10:23:21;7.40;99.90
4399;DHT22;2213;49.720;7.296;2023-11-18T10:25:51;7.30;99.90
4399;DHT22;2213;49.720;7.296;2023-11-18T10:28:24;7.40;99.90
4399;DHT22;2213;49.720;7.296;2023-11-18T10:30:58;7.40;99.90
4399;DHT22;2213;49.720;7.296;2023-11-18T10:33:30;7.50;99.90
4399;DHT22;2213;49.720;7.296;2023-11-18T10:36:00;7.40;99.90
4399;DHT22;2213;49.720;7.296;2023-11-18T10:38:33;7.50;99.90
4399;DHT22;2213;49.720;7.296;2023-11-18T10:41:10;7.60;99.90
4399;DHT22;2213;49.720;7.296;2023-11-18T10:43:39;7.50;99.90
4399;DHT22;2213;49.720;7.296;2023-11-18T10:46:11;7.60;99.90
4399;DHT22;2213;49.720;7.296;2023-11-18T10:48:42;7.60;99.90
4399;DHT22;2213;49.720;7.296;2023-11-18T10:51:12;7.60;99.90
4399;DHT22;2213;49.720;7.296;2023-11-18T10:53:43;7.60;99.90
4399;DHT22;2213;49.720;7.296;2023-11-18T10:56:20;7.60;99.90
4399;DHT22;2213;49.720;7.296;2023-11-18T10:58:56;7.60;99.90
4399;DHT22;2213;49.720;7.296;2023-11-18T11:01:31;7.60;99.90
4399;DHT22;2213;49.720;7.296;2023-11-18T11:04:01;7.50;99.90
4399;DHT22;2213;49.720;7.296;2023-11-18T11:06:32;7.50;99.90
4399;DHT22;2213;49.720;7.296;2023-11-18T11:09:02;7.50;99.90
4399;DHT22;2213;49.720;7.296;2023-11-18T11:11:44;7.60;99.90
4399;DHT22;2213;49.720;7.296;2023-11-18T11:14:17;7.60;99.90
4399;DHT22;2213;49.720;7.296;2023-11-18T11:16:55;7.50;99.90
4399;DHT22;2213;49.720;7.296;2023-11-18T11:19:45;7.60;99.90
4399;DHT22;2213;49.720;7.296;2023-11-18T11:22:24;7.60;99.90
4399;DHT22;2213;49.720;7.296;2023-11-18T11:25:13;7.60;99.90
4399;DHT22;2213;49.720;7.296;2023-11-18T11:27:56;7.60;99.90
4399;DHT22;2213;49.720;7.296;2023-11-18T11:30:36;7.60;99.90
4399;DHT22;2213;49.720;7.296;2023-11-18T11:33:17;7.60;99.90
4399;DHT22;2213;49.720;7.296;2023-11-18T11:35:56;7.50;99.90
4399;DHT22;2213;49.720;7.296;2023-11-18T11:38:25;7.60;99.90
4399;DHT22;2213;49.720;7.296;2023-11-18T11:40:56;7.60;99.90
4399;DHT22;2213;49.720;7.296;2023-11-18T11:43:29;7.50;99.90
4399;DHT22;2213;49.720;7.296;2023-11-18T11:46:02;7.60;99.90
4399;DHT22;2213;49.720;7.296;2023-11-18T11:48:38;7.60;99.90
4399;DHT22;2213;49.720;7.296;2023-11-18T11:51:20;7.60;99.90
4399;DHT22;2213;49.720;7.296;2023-11-18T11:53:58;7.60;99.90
4399;DHT22;2213;49.720;7.296;2023-11-18T11:56:39;7.60;99.90
4399;DHT22;2213;49.720;7.296;2023-11-18T11:59:07;7.60;99.90
4399;DHT22;2213;49.720;7.296;2023-11-18T12:01:39;7.60;99.90
4399;DHT22;2213;49.720;7.296;2023-11-18T12:04:16;7.60;99.90
4399;DHT22;2213;49.720;7.296;2023-11-18T12:06:53;7.60;99.90
4399;DHT22;2213;49.720;7.296;2023-11-18T12:09:38;7.70;99.90
4399;DHT22;2213;49.720;7.296;2023-11-18T12:12:17;7.70;99.90
4399;DHT22;2213;49.720;7.296;2023-11-18T12:14:50;7.80;99.90
4399;DHT22;2213;49.720;7.296;2023-11-18T12:17:23;7.70;99.90
4399;DHT22;2213;49.720;7.296;2023-11-18T12:20:01;7.70;99.90
4399;DHT22;2213;49.720;7.296;2023-11-18T12:23:03;7.70;99.90
4399;DHT22;2213;49.720;7.296;2023-11-18T12:25:42;7.80;99.90
4399;DHT22;2213;49.720;7.296;2023-11-18T12:28:15;7.80;99.90
4399;DHT22;2213;49.720;7.296;2023-11-18T12:30:48;7.80;99.90
4399;DHT22;2213;49.720;7.296;2023-11-18T12:34:01;7.80;99.90
4399;DHT22;2213;49.720;7.296;2023-11-18T12:37:03;7.90;99.90
4399;DHT22;2213;49.720;7.296;2023-11-18T12:43:15;8.10;99.90
4399;DHT22;2213;49.720;7.296;2023-11-18T12:49:04;8.10;99.90
4399;DHT22;2213;49.720;7.296;2023-11-18T12:51:33;8.10;99.90
4399;DHT22;2213;49.720;7.296;2023-11-18T12:54:05;8.20;99.90
4399;DHT22;2213;49.720;7.296;2023-11-18T12:56:35;8.20;99.90
4399;DHT22;2213;49.720;7.296;2023-11-18T12:59:05;8.10;99.90
4399;DHT22;2213;49.720;7.296;2023-11-18T13:01:36;8.20;99.90
4399;DHT22;2213;49.720;7.296;2023-11-18T13:04:05;8.10;99.90
4399;DHT22;2213;49.720;7.296;2023-11-18T13:06:34;8.20;99.90
4399;DHT22;2213;49.720;7.296;2023-11-18T13:09:04;8.20;99.90
4399;DHT22;2213;49.720;7.296;2023-11-18T13:11:36;8.20;99.90
4399;DHT22;2213;49.720;7.296;2023-11-18T13:14:09;8.20;99.90
4399;DHT22;2213;49.720;7.296;2023-11-18T13:16:39;8.20;99.90
4399;DHT22;2213;49.720;7.296;2023-11-18T13:19:08;8.20;99.90
4399;DHT22;2213;49.720;7.296;2023-11-18T13:21:37;8.30;99.90
4399;DHT22;2213;49.720;7.296;2023-11-18T13:24:08;8.30;99.90
4399;DHT22;2213;49.720;7.296;2023-11-18T13:26:37;8.30;99.90
4399;DHT22;2213;49.720;7.296;2023-11-18T13:29:05;8.30;99.90
4399;DHT22;2213;49.720;7.296;2023-11-18T13:31:34;8.30;99.90
4399;DHT22;2213;49.720;7.296;2023-11-18T13:34:03;8.30;99.90
4399;DHT22;2213;49.720;7.296;2023-11-18T13:36:35;8.20;99.90
4399;DHT22;2213;49.720;7.296;2023-11-18T13:39:04;8.10;99.90
4399;DHT22;2213;49.720;7.296;2023-11-18T13:41:35;8.10;99.90
4399;DHT22;2213;49.720;7.296;2023-11-18T13:44:04;8.10;99.90
4399;DHT22;2213;49.720;7.296;2023-11-18T13:46:33;8.00;99.90
4399;DHT22;2213;49.720;7.296;2023-11-18T13:49:02;8.20;99.90
4399;DHT22;2213;49.720;7.296;2023-11-18T13:51:32;8.10;99.90
4399;DHT22;2213;49.720;7.296;2023-11-18T13:54:03;8.10;99.90
4399;DHT22;2213;49.720;7.296;2023-11-18T13:56:35;8.20;99.90
4399;DHT22;2213;49.720;7.296;2023-11-18T13:59:04;8.10;99.90
4399;DHT22;2213;49.720;7.296;2023-11-18T14:01:33;8.20;99.90
4399;DHT22;2213;49.720;7.296;2023-11-18T14:04:05;8.20;99.90
4399;DHT22;2213;49.720;7.296;2023-11-18T14:06:35;8.20;99.90
4399;DHT22;2213;49.720;7.296;2023-11-18T14:09:06;8.30;99.90
4399;DHT22;2213;49.720;7.296;2023-11-18T14:11:39;8.30;99.90
4399;DHT22;2213;49.720;7.296;2023-11-18T14:14:08;8.30;99.90
4399;DHT22;2213;49.720;7.296;2023-11-18T14:16:37;8.20;99.90
4399;DHT22;2213;49.720;7.296;2023-11-18T14:19:07;8.30;99.90
4399;DHT22;2213;49.720;7.296;2023-11-18T14:21:35;8.30;99.90
4399;DHT22;2213;49.720;7.296;2023-11-18T14:24:05;8.40;99.90
4399;DHT22;2213;49.720;7.296;2023-11-18T14:26:34;8.30;99.90
4399;DHT22;2213;49.720;7.296;2023-11-18T14:29:04;8.30;99.90
4399;DHT22;2213;49.720;7.296;2023-11-18T14:31:33;8.30;99.90
4399;DHT22;2213;49.720;7.296;2023-11-18T14:34:02;8.10;99.90
4399;DHT22;2213;49.720;7.296;2023-11-18T14:36:31;8.20;99.90
4399;DHT22;2213;49.720;7.296;2023-11-18T14:39:00;8.20;99.90
4399;DHT22;2213;49.720;7.296;2023-11-18T14:41:30;8.10;99.90
4399;DHT22;2213;49.720;7.296;2023-11-18T14:43:59;8.20;99.90
4399;DHT22;2213;49.720;7.296;2023-11-18T14:46:32;8.10;99.90
4399;DHT22;2213;49.720;7.296;2023-11-18T14:49:01;8.20;99.90
4399;DHT22;2213;49.720;7.296;2023-11-18T14:51:32;8.10;99.90
4399;DHT22;2213;49.720;7.296;2023-11-18T14:54:03;8.10;99.90
4399;DHT22;2213;49.720;7.296;2023-11-18T14:56:33;8.10;99.90
4399;DHT22;2213;49.720;7.296;2023-11-18T14:59:02;8.20;99.90
4399;DHT22;2213;49.720;7.296;2023-11-18T15:01:34;8.20;99.90
4399;DHT22;2213;49.720;7.296;2023-11-18T15:04:03;8.10;99.90
4399;DHT22;2213;49.720;7.296;2023-11-18T15:06:33;8.10;99.90
4399;DHT22;2213;49.720;7.296;2023-11-18T15:09:01;8.20;99.90
4399;DHT22;2213;49.720;7.296;2023-11-18T15:11:30;8.20;99.90
4399;DHT22;2213;49.720;7.296;2023-11-18T15:14:01;8.20;99.90
4399;DHT22;2213;49.720;7.296;2023-11-18T15:16:30;8.20;99.90
4399;DHT22;2213;49.720;7.296;2023-11-18T15:19:00;8.20;99.90
4399;DHT22;2213;49.720;7.296;2023-11-18T15:21:28;8.20;99.90
4399;DHT22;2213;49.720;7.296;2023-11-18T15:23:57;8.10;99.90
4399;DHT22;2213;49.720;7.296;2023-11-18T15:26:28;8.10;99.90
4399;DHT22;2213;49.720;7.296;2023-11-18T15:28:58;8.10;99.90
4399;DHT22;2213;49.720;7.296;2023-11-18T15:31:29;8.10;99.90
4399;DHT22;2213;49.720;7.296;2023-11-18T15:33:57;8.10;99.90
4399;DHT22;2213;49.720;7.296;2023-11-18T15:36:28;8.10;99.90
4399;DHT22;2213;49.720;7.296;2023-11-18T15:38:59;8.20;99.90
4399;DHT22;2213;49.720;7.296;2023-11-18T15:41:30;8.10;99.90
4399;DHT22;2213;49.720;7.296;2023-11-18T15:43:59;8.10;99.90
4399;DHT22;2213;49.720;7.296;2023-11-18T15:46:30;8.10;99.90
4399;DHT22;2213;49.720;7.296;2023-11-18T15:49:02;8.10;99.90
4399;DHT22;2213;49.720;7.296;2023-11-18T15:51:32;8.10;99.90
4399;DHT22;2213;49.720;7.296;2023-11-18T15:54:00;8.10;99.90
4399;DHT22;2213;49.720;7.296;2023-11-18T15:56:29;8.20;99.90
4399;DHT22;2213;49.720;7.296;2023-11-18T15:58:57;8.10;99.90
4399;DHT22;2213;49.720;7.296;2023-11-18T16:01:26;8.10;99.90
4399;DHT22;2213;49.720;7.296;2023-11-18T16:03:54;8.10;99.90
4399;DHT22;2213;49.720;7.296;2023-11-18T16:06:23;8.20;99.90
4399;DHT22;2213;49.720;7.296;2023-11-18T16:08:54;8.10;99.90
4399;DHT22;2213;49.720;7.296;2023-11-18T16:11:22;8.00;99.90
4399;DHT22;2213;49.720;7.296;2023-11-18T16:13:51;8.00;99.90
4399;DHT22;2213;49.720;7.296;2023-11-18T16:16:20;7.90;99.90
4399;DHT22;2213;49.720;7.296;2023-11-18T16:18:51;7.90;99.90
4399;DHT22;2213;49.720;7.296;2023-11-18T16:21:21;8.00;99.90
4399;DHT22;2213;49.720;7.296;2023-11-18T16:23:50;8.10;99.90
4399;DHT22;2213;49.720;7.296;2023-11-18T16:26:20;8.20;99.90
4399;DHT22;2213;49.720;7.296;2023-11-18T16:28:49;8.10;99.90
4399;DHT22;2213;49.720;7.296;2023-11-18T16:31:18;8.20;99.90
4399;DHT22;2213;49.720;7.296;2023-11-18T16:33:46;8.10;99.90
4399;DHT22;2213;49.720;7.296;2023-11-18T16:36:20;8.10;99.90
4399;DHT22;2213;49.720;7.296;2023-11-18T16:38:49;8.20;99.90
4399;DHT22;2213;49.720;7.296;2023-11-18T16:41:19;8.10;99.90
4399;DHT22;2213;49.720;7.296;2023-11-18T16:43:48;8.10;99.90
4399;DHT22;2213;49.720;7.296;2023-11-18T16:46:16;8.10;99.90
4399;DHT22;2213;49.720;7.296;2023-11-18T16:48:45;8.10;99.90